Time;durP1;ratioP1;P1;durP2;ratioP2;P2;SDS_P1;SDS_P2;PMS_P1;PMS_P2;Temp;Humidity;BMP_temperature;BMP_pressure;BME280_temperature;BME280_humidity;BME280_pressure;Samples;Min_cycle;Max_cycle;Signal;HPM_P1;HPM_P2
2021/01/16 00:02:04;;;;;;;34.78;31.67;;;1.30;85.80;;;;;;5038979;28;20207;-77
2021/01/16 00:04:30;;;;;;;35.28;31.42;;;1.40;87.50;;;;;;5035963;28;20192;-77
2021/01/16 00:06:57;;;;;;;34.20;31.17;;;1.40;85.30;;;;;;5038796;28;20219;-77
2021/01/16 00:09:24;;;;;;;35.45;32.35;;;1.40;85.30;;;;;;5039301;28;20203;-77
2021/01/16 00:11:50;;;;;;;34.17;31.20;;;1.40;84.60;;;;;;5039145;28;20693;-77
2021/01/16 00:14:17;;;;;;;34.72;31.70;;;1.30;84.80;;;;;;5037045;28;20202;-77
2021/01/16 00:16:44;;;;;;;34.70;31.42;;;1.30;84.70;;;;;;5038730;28;20259;-77
2021/01/16 00:19:10;;;;;;;34.00;30.90;;;1.30;84.80;;;;;;5038732;28;20295;-77
2021/01/16 00:21:36;;;;;;;35.75;32.65;;;1.20;85.10;;;;;;5038875;28;20195;-77
2021/01/16 00:24:04;;;;;;;34.00;31.15;;;1.20;85.30;;;;;;5027911;28;20199;-77
2021/01/16 00:26:31;;;;;;;34.83;31.75;;;1.20;85.30;;;;;;5018880;28;20216;-77
2021/01/16 00:28:57;;;;;;;34.00;31.33;;;1.20;86.40;;;;;;5019367;28;20207;-77
2021/01/16 00:31:24;;;;;;;34.67;31.67;;;1.10;85.60;;;;;;5018684;28;20216;-77
2021/01/16 00:33:50;;;;;;;49.83;35.47;;;1.20;85.60;;;;;;5019307;28;20220;-77
2021/01/16 00:36:16;;;;;;;33.70;30.80;;;1.20;85.70;;;;;;5018397;28;20770;-77
2021/01/16 00:38:43;;;;;;;34.40;31.48;;;1.20;86.40;;;;;;5018876;28;20729;-77
2021/01/16 00:41:10;;;;;;;34.85;32.05;;;1.20;85.20;;;;;;5018884;28;20550;-77
2021/01/16 00:43:37;;;;;;;33.55;30.67;;;1.20;84.90;;;;;;5020617;28;20250;-77
2021/01/16 00:46:03;;;;;;;34.80;31.90;;;1.10;85.00;;;;;;5024486;28;20200;-77
2021/01/16 00:48:30;;;;;;;35.58;32.60;;;1.10;85.20;;;;;;5038205;28;20701;-77
2021/01/16 00:50:56;;;;;;;36.90;33.83;;;1.10;85.10;;;;;;5038593;28;20619;-77
2021/01/16 00:53:23;;;;;;;34.58;31.73;;;0.90;85.20;;;;;;5038437;28;20199;-77
2021/01/16 00:55:50;;;;;;;34.72;31.88;;;0.90;85.90;;;;;;5034162;28;20266;-77
2021/01/16 00:58:19;;;;;;;36.63;33.42;;;0.90;85.50;;;;;;5018320;28;20315;-77
2021/01/16 01:00:47;;;;;;;34.28;31.05;;;1.00;85.30;;;;;;5018602;28;20204;-77
2021/01/16 01:03:17;;;;;;;35.38;32.28;;;1.00;85.20;;;;;;5018632;28;20200;-77
2021/01/16 01:05:44;;;;;;;34.28;31.33;;;0.90;85.70;;;;;;5019935;28;20207;-77
2021/01/16 01:08:11;;;;;;;36.22;32.95;;;0.90;86.00;;;;;;5034466;28;20254;-77
2021/01/16 01:10:40;;;;;;;35.42;32.13;;;1.00;86.20;;;;;;5035296;28;20323;-77
2021/01/16 01:13:06;;;;;;;35.28;32.03;;;1.00;85.40;;;;;;5034127;28;20200;-77
2021/01/16 01:15:33;;;;;;;36.15;32.85;;;1.00;86.80;;;;;;5015324;28;20202;-77
2021/01/16 01:18:01;;;;;;;36.03;32.70;;;1.00;85.40;;;;;;5019248;28;20677;-77
2021/01/16 01:20:28;;;;;;;35.35;32.17;;;0.90;85.40;;;;;;5015326;28;20204;-77
2021/01/16 01:22:55;;;;;;;36.65;33.25;;;0.90;85.80;;;;;;5015165;28;20195;-77
2021/01/16 01:25:22;;;;;;;36.10;32.72;;;1.00;85.80;;;;;;5015234;28;20207;-77
2021/01/16 01:27:50;;;;;;;36.10;32.67;;;1.00;85.80;;;;;;5015320;28;20223;-77
2021/01/16 01:30:18;;;;;;;34.53;31.58;;;1.10;85.40;;;;;;5015151;28;20562;-77
2021/01/16 01:32:45;;;;;;;35.90;32.60;;;1.10;85.20;;;;;;5015020;28;20233;-77
2021/01/16 01:35:14;;;;;;;35.92;32.83;;;1.00;85.20;;;;;;5015168;28;20197;-77
2021/01/16 01:37:41;;;;;;;34.72;31.77;;;0.90;85.60;;;;;;5014664;28;20290;-77
2021/01/16 01:40:11;;;;;;;36.80;33.38;;;0.90;85.40;;;;;;5014654;28;20239;-77
2021/01/16 01:42:37;;;;;;;36.58;33.33;;;0.90;85.40;;;;;;4996173;28;20599;-77
2021/01/16 01:45:05;;;;;;;37.05;33.53;;;1.10;85.10;;;;;;4995414;28;20206;-77
2021/01/16 01:47:35;;;;;;;38.13;34.42;;;1.10;84.60;;;;;;4994912;28;20214;-77
2021/01/16 01:50:01;;;;;;;37.13;33.72;;;1.10;84.90;;;;;;5020999;28;20219;-77
2021/01/16 01:52:29;;;;;;;35.95;32.95;;;1.00;85.30;;;;;;5034111;28;20185;-77
2021/01/16 01:54:57;;;;;;;37.83;34.45;;;1.20;85.30;;;;;;5022298;28;20240;-78
2021/01/16 01:57:24;;;;;;;36.03;32.45;;;1.20;84.40;;;;;;5014712;28;20227;-77
2021/01/16 01:59:53;;;;;;;37.08;33.38;;;1.10;86.10;;;;;;5014452;28;20201;-77
2021/01/16 02:02:21;;;;;;;36.90;33.47;;;1.10;86.30;;;;;;5014392;28;20616;-77
2021/01/16 02:04:50;;;;;;;35.92;32.83;;;1.20;87.00;;;;;;5024383;28;20227;-77
2021/01/16 02:07:25;;;;;;;35.75;32.85;;;1.20;85.50;;;;;;5034132;28;20320;-77
2021/01/16 02:09:53;;;;;;;36.45;33.20;;;1.30;84.60;;;;;;5034332;28;20204;-77
2021/01/16 02:12:20;;;;;;;35.10;32.05;;;1.20;83.60;;;;;;5034122;28;20212;-77
2021/01/16 02:14:55;;;;;;;35.70;32.50;;;1.20;83.80;;;;;;5033195;28;20199;-77
2021/01/16 02:17:25;;;;;;;35.42;32.17;;;1.10;83.80;;;;;;5033409;28;20615;-77
2021/01/16 02:20:08;;;;;;;38.65;35.20;;;1.10;84.00;;;;;;5034040;28;20199;-77
2021/01/16 02:22:59;;;;;;;36.80;33.10;;;1.10;83.80;;;;;;5033848;28;20663;-77
2021/01/16 02:25:45;;;;;;;35.22;31.92;;;1.10;83.80;;;;;;5003463;28;20733;-77
2021/01/16 02:28:20;;;;;;;34.28;31.17;;;1.10;84.10;;;;;;5031781;28;20209;-77
2021/01/16 02:30:47;;;;;;;81.20;36.65;;;1.30;84.20;;;;;;5033823;28;20266;-77
2021/01/16 02:33:18;;;;;;;804.35;118.88;;;1.30;83.50;;;;;;5033724;28;20227;-77
2021/01/16 02:35:54;;;;;;;35.95;32.75;;;1.30;88.40;;;;;;5021512;28;20204;-77
2021/01/16 02:38:28;;;;;;;36.17;32.85;;;1.30;88.20;;;;;;5013674;28;20230;-77
2021/01/16 02:41:00;;;;;;;36.70;33.47;;;1.30;85.80;;;;;;5013890;28;20664;-77
2021/01/16 02:43:33;;;;;;;37.00;33.60;;;1.30;84.30;;;;;;5013817;28;20669;-77
2021/01/16 02:46:14;;;;;;;36.53;33.13;;;1.20;84.20;;;;;;5013674;28;20237;-77
2021/01/16 02:48:52;;;;;;;36.17;32.88;;;1.20;84.00;;;;;;5014354;28;20199;-77
2021/01/16 02:51:25;;;;;;;484.73;89.00;;;1.30;84.20;;;;;;5013774;28;20194;-77
2021/01/16 02:53:53;;;;;;;167.23;53.03;;;1.20;89.70;;;;;;5013577;28;20363;-77
2021/01/16 02:56:28;;;;;;;34.72;31.73;;;1.20;93.40;;;;;;5017646;28;20216;-77
2021/01/16 02:58:56;;;;;;;36.38;32.75;;;1.30;91.40;;;;;;5013374;28;20286;-77
2021/01/16 03:01:23;;;;;;;34.85;31.42;;;1.30;89.40;;;;;;5013392;28;20204;-77
2021/01/16 03:03:49;;;;;;;34.67;31.50;;;1.30;87.70;;;;;;5032056;28;20619;-77
2021/01/16 03:06:17;;;;;;;574.72;92.30;;;1.30;87.20;;;;;;5019793;28;20256;-77
2021/01/16 03:08:44;;;;;;;100.53;40.15;;;1.30;88.90;;;;;;5023087;28;20201;-77
2021/01/16 03:11:12;;;;;;;36.50;32.85;;;1.20;90.00;;;;;;5013233;28;20288;-77
2021/01/16 03:13:40;;;;;;;33.47;30.55;;;1.30;90.80;;;;;;5013249;28;20568;-77
2021/01/16 03:16:13;;;;;;;35.50;31.90;;;1.40;89.60;;;;;;5013255;28;20259;-77
2021/01/16 03:18:44;;;;;;;34.53;31.23;;;1.40;87.90;;;;;;5020986;28;20210;-77
2021/01/16 03:21:10;;;;;;;34.35;31.35;;;1.40;87.80;;;;;;5013307;28;20205;-77
2021/01/16 03:23:37;;;;;;;1999.90;390.45;;;1.40;89.00;;;;;;5013463;28;20255;-78
2021/01/16 03:26:03;;;;;;;37.40;33.17;;;1.40;89.50;;;;;;5012906;28;20237;-77
2021/01/16 03:28:29;;;;;;;38.72;34.85;;;1.40;92.10;;;;;;5023464;28;20204;-77
2021/01/16 03:30:56;;;;;;;208.32;50.17;;;1.40;91.80;;;;;;5032167;28;20205;-77
2021/01/16 03:33:23;;;;;;;37.28;33.67;;;1.40;90.60;;;;;;5032829;28;20223;-77
2021/01/16 03:35:49;;;;;;;36.22;32.92;;;1.40;90.10;;;;;;5030715;28;20701;-77
2021/01/16 03:38:16;;;;;;;35.95;32.75;;;1.40;88.70;;;;;;5020434;28;20683;-77
2021/01/16 03:40:42;;;;;;;36.63;33.08;;;1.50;88.30;;;;;;5030892;28;20192;-77
2021/01/16 03:43:08;;;;;;;35.67;32.40;;;1.50;88.40;;;;;;5032411;28;20683;-77
2021/01/16 03:45:35;;;;;;;37.65;33.97;;;1.40;87.10;;;;;;5032440;28;20203;-77
2021/01/16 03:48:01;;;;;;;37.55;33.92;;;1.40;86.50;;;;;;5032395;28;20213;-77
2021/01/16 03:50:28;;;;;;;37.00;33.47;;;1.40;85.80;;;;;;5022699;28;20682;-77
2021/01/16 03:52:55;;;;;;;36.95;33.53;;;1.30;85.60;;;;;;5031928;28;20193;-77
2021/01/16 03:55:21;;;;;;;37.85;34.05;;;1.30;86.50;;;;;;5032503;28;20276;-77
2021/01/16 03:57:48;;;;;;;37.42;33.88;;;1.40;86.00;;;;;;5030578;28;20220;-77
2021/01/16 04:00:14;;;;;;;39.50;34.38;;;1.40;91.00;;;;;;5012888;28;20266;-77
2021/01/16 04:02:41;;;;;;;149.70;43.63;;;1.50;88.60;;;;;;5012737;28;20206;-77
2021/01/16 04:05:08;;;;;;;1104.15;174.00;;;1.50;87.90;;;;;;5027356;28;20196;-77
2021/01/16 04:07:36;;;;;;;36.45;32.63;;;1.40;95.50;;;;;;5032180;28;20640;-77
2021/01/16 04:10:03;;;;;;;178.45;46.95;;;1.40;94.30;;;;;;5032376;28;20201;-77
2021/01/16 04:12:29;;;;;;;37.42;33.47;;;1.40;94.40;;;;;;5032335;28;20201;-77
2021/01/16 04:14:56;;;;;;;36.33;32.42;;;1.40;95.50;;;;;;5013159;28;20190;-77
2021/01/16 04:17:23;;;;;;;38.80;35.00;;;1.50;92.80;;;;;;5026910;28;20224;-77
2021/01/16 04:19:50;;;;;;;39.28;35.58;;;1.40;88.50;;;;;;5032252;28;20201;-77
2021/01/16 04:22:16;;;;;;;38.33;34.33;;;1.40;87.40;;;;;;5032554;28;20563;-77
2021/01/16 04:24:43;;;;;;;37.72;33.85;;;1.40;86.70;;;;;;5015773;28;20283;-77
2021/01/16 04:27:09;;;;;;;38.30;34.55;;;1.30;86.50;;;;;;5012324;28;20216;-77
2021/01/16 04:29:36;;;;;;;37.83;34.13;;;1.30;86.30;;;;;;5012559;28;20226;-77
2021/01/16 04:32:02;;;;;;;103.38;38.88;;;1.30;85.80;;;;;;5021719;28;20254;-77
2021/01/16 04:34:29;;;;;;;37.78;33.88;;;1.40;86.20;;;;;;5032081;28;20264;-77
2021/01/16 04:36:55;;;;;;;39.63;35.50;;;1.30;92.60;;;;;;5031777;28;20217;-77
2021/01/16 04:39:22;;;;;;;36.90;33.33;;;1.40;89.80;;;;;;5022648;28;20214;-77
2021/01/16 04:41:53;;;;;;;35.90;31.42;;;1.40;88.40;;;;;;5034422;28;20209;-77
2021/01/16 04:44:21;;;;;;;37.17;33.38;;;1.30;90.60;;;;;;5035830;28;20566;-77
2021/01/16 04:46:50;;;;;;;934.22;149.93;;;1.40;91.60;;;;;;5035559;28;20271;-77
2021/01/16 04:49:18;;;;;;;83.43;38.67;;;1.30;94.60;;;;;;5023949;28;20198;-77
2021/01/16 04:51:48;;;;;;;42.25;34.45;;;1.20;93.30;;;;;;5015650;28;20638;-77
2021/01/16 04:54:16;;;;;;;93.40;39.05;;;1.30;96.30;;;;;;5015712;28;20201;-77
2021/01/16 04:56:43;;;;;;;36.72;33.05;;;1.30;97.90;;;;;;5015599;28;20226;-77
2021/01/16 04:59:11;;;;;;;36.08;32.65;;;1.40;94.90;;;;;;5020915;28;20669;-77
2021/01/16 05:01:37;;;;;;;37.53;33.65;;;1.40;93.70;;;;;;5035131;28;20277;-77
2021/01/16 05:04:04;;;;;;;35.45;32.10;;;1.30;92.10;;;;;;5035208;28;20607;-77
2021/01/16 05:06:30;;;;;;;242.40;54.90;;;1.30;92.20;;;;;;5035244;28;20217;-77
2021/01/16 05:08:59;;;;;;;38.97;34.78;;;1.40;90.70;;;;;;5031677;28;20662;-77
2021/01/16 05:11:35;;;;;;;39.70;35.75;;;1.30;91.60;;;;;;5015592;28;20266;-77
2021/01/16 05:14:12;;;;;;;37.58;33.97;;;1.30;90.10;;;;;;5015651;28;20212;-77
2021/01/16 05:16:51;;;;;;;37.67;33.83;;;1.30;89.00;;;;;;5015447;28;20224;-77
2021/01/16 05:19:20;;;;;;;36.47;32.92;;;1.30;88.60;;;;;;5021438;28;20199;-77
2021/01/16 05:21:47;;;;;;;59.20;37.70;;;1.30;87.50;;;;;;5033538;28;20555;-77
2021/01/16 05:24:16;;;;;;;266.17;55.05;;;1.30;90.60;;;;;;5019250;28;20185;-77
2021/01/16 05:27:01;;;;;;;38.25;34.25;;;1.40;88.70;;;;;;5034905;28;20709;-77
2021/01/16 05:29:29;;;;;;;96.93;38.67;;;1.40;88.90;;;;;;4995627;28;20206;-77
2021/01/16 05:31:57;;;;;;;968.70;143.38;;;1.40;88.20;;;;;;4995582;28;20206;-77
2021/01/16 05:34:24;;;;;;;1144.63;186.02;;;1.40;91.30;;;;;;5004901;28;20277;-77
2021/01/16 05:36:51;;;;;;;178.38;51.97;;;1.30;96.60;;;;;;5034557;28;20224;-77
2021/01/16 05:39:19;;;;;;;38.22;34.42;;;1.30;97.30;;;;;;5034744;28;20208;-77
2021/01/16 05:41:46;;;;;;;43.25;38.42;;;1.30;96.30;;;;;;5034729;28;20597;-77
2021/01/16 05:44:13;;;;;;;38.25;34.35;;;1.40;97.70;;;;;;5034786;28;20200;-77
2021/01/16 05:46:45;;;;;;;35.85;31.98;;;1.30;94.90;;;;;;5025733;28;20210;-77
2021/01/16 05:49:15;;;;;;;36.08;32.30;;;1.30;94.90;;;;;;5015133;28;20674;-77
2021/01/16 05:51:43;;;;;;;41.13;36.70;;;1.30;92.30;;;;;;5015345;28;20205;-77
2021/01/16 05:54:11;;;;;;;37.22;33.50;;;1.40;90.70;;;;;;5013993;28;20209;-77
2021/01/16 05:56:38;;;;;;;37.95;34.25;;;1.40;88.60;;;;;;5022234;28;20209;-77
2021/01/16 05:59:09;;;;;;;39.58;35.53;;;1.30;88.20;;;;;;5034021;28;20206;-77
2021/01/16 06:01:38;;;;;;;41.13;36.85;;;1.30;89.40;;;;;;5034777;28;20201;-77
2021/01/16 06:04:06;;;;;;;1937.13;369.40;;;1.30;89.60;;;;;;5034150;28;20201;-77
2021/01/16 06:06:34;;;;;;;40.75;35.80;;;1.30;92.20;;;;;;5027631;28;20575;-77
2021/01/16 06:09:01;;;;;;;38.05;34.15;;;1.40;90.50;;;;;;5014505;28;20204;-77
2021/01/16 06:11:36;;;;;;;41.03;36.38;;;1.30;91.20;;;;;;5014401;28;20198;-77
2021/01/16 06:14:05;;;;;;;38.97;34.88;;;1.30;91.20;;;;;;5014550;28;20200;-77
2021/01/16 06:16:49;;;;;;;37.70;33.80;;;1.30;95.00;;;;;;5014129;28;20214;-78
2021/01/16 06:19:19;;;;;;;39.20;35.20;;;1.30;95.20;;;;;;5027353;28;20189;-77
2021/01/16 06:21:46;;;;;;;39.17;35.42;;;1.40;90.60;;;;;;5034016;28;20206;-77
2021/01/16 06:24:19;;;;;;;39.35;35.35;;;1.30;87.30;;;;;;5033871;28;20200;-77
2021/01/16 06:26:54;;;;;;;37.10;33.40;;;1.20;87.60;;;;;;5033712;28;20221;-77
2021/01/16 06:29:26;;;;;;;39.67;35.97;;;1.20;87.40;;;;;;5019976;28;20234;-77
2021/01/16 06:32:04;;;;;;;40.72;36.53;;;1.30;86.50;;;;;;5021180;28;20590;-77
2021/01/16 06:34:32;;;;;;;37.10;33.33;;;1.40;85.20;;;;;;5033617;28;20196;-77
2021/01/16 06:37:08;;;;;;;37.15;33.70;;;1.30;84.60;;;;;;5033421;28;20318;-77
2021/01/16 06:39:36;;;;;;;38.95;35.33;;;1.20;83.80;;;;;;5033637;28;20195;-77
2021/01/16 06:42:08;;;;;;;39.25;35.60;;;1.00;84.10;;;;;;5025720;28;20256;-77
2021/01/16 06:44:35;;;;;;;412.33;70.15;;;1.00;84.30;;;;;;5014057;28;20211;-77
2021/01/16 06:47:02;;;;;;;41.08;36.05;;;1.00;87.10;;;;;;5013639;28;20224;-77
2021/01/16 06:49:31;;;;;;;41.08;36.75;;;1.10;87.30;;;;;;5014597;28;20201;-77
2021/01/16 06:51:58;;;;;;;38.00;33.30;;;1.10;85.80;;;;;;5033415;28;20684;-77
2021/01/16 06:54:25;;;;;;;61.70;36.38;;;1.10;90.20;;;;;;5033523;28;20700;-77
2021/01/16 06:57:07;;;;;;;37.85;33.90;;;1.10;87.00;;;;;;5028845;28;20226;-77
2021/01/16 06:59:34;;;;;;;37.97;34.05;;;1.10;88.80;;;;;;5013212;28;20201;-77
2021/01/16 07:02:13;;;;;;;40.67;36.63;;;1.00;92.00;;;;;;5013624;28;20207;-77
2021/01/16 07:04:52;;;;;;;39.65;35.92;;;1.00;90.10;;;;;;5015996;28;20196;-77
2021/01/16 07:07:26;;;;;;;38.88;34.92;;;1.20;88.60;;;;;;5032996;28;20582;-77
2021/01/16 07:09:55;;;;;;;38.05;32.72;;;1.20;87.70;;;;;;5033249;28;20584;-77
2021/01/16 07:12:22;;;;;;;37.63;33.97;;;1.30;88.50;;;;;;5033124;28;20201;-77
2021/01/16 07:14:48;;;;;;;765.38;129.32;;;1.20;88.60;;;;;;5028499;28;20209;-77
2021/01/16 07:17:15;;;;;;;38.53;34.45;;;1.30;92.70;;;;;;5013049;28;20233;-77
2021/01/16 07:19:45;;;;;;;48.40;34.92;;;1.30;92.10;;;;;;5013161;28;20205;-77
2021/01/16 07:22:12;;;;;;;37.38;33.88;;;1.30;90.00;;;;;;5013293;28;20197;-77
2021/01/16 07:24:39;;;;;;;143.57;40.88;;;1.20;88.80;;;;;;5014410;28;20196;-77
2021/01/16 07:27:06;;;;;;;40.38;35.92;;;1.20;94.30;;;;;;5012812;28;20221;-77
2021/01/16 07:29:38;;;;;;;39.30;34.30;;;1.20;93.40;;;;;;5013006;28;20206;-77
2021/01/16 07:32:15;;;;;;;37.85;34.05;;;1.10;91.80;;;;;;5013198;28;20212;-77
2021/01/16 07:34:50;;;;;;;39.88;35.83;;;1.10;90.00;;;;;;5022950;28;20238;-77
2021/01/16 07:37:17;;;;;;;38.67;34.58;;;1.20;89.60;;;;;;5026204;28;20220;-77
2021/01/16 07:39:45;;;;;;;37.92;34.13;;;1.20;88.60;;;;;;5012959;28;20201;-77
2021/01/16 07:42:14;;;;;;;37.03;33.30;;;1.10;87.80;;;;;;5012676;28;20355;-77
2021/01/16 07:44:43;;;;;;;70.60;36.47;;;1.10;88.70;;;;;;5022769;28;20691;-77
2021/01/16 07:47:22;;;;;;;1338.68;197.50;;;1.20;90.00;;;;;;5029440;28;20599;-77
2021/01/16 07:49:54;;;;;;;997.17;159.20;;;1.20;89.30;;;;;;5012831;28;20204;-77
2021/01/16 07:52:26;;;;;;;37.10;33.10;;;1.30;92.70;;;;;;5012845;28;20685;-77
2021/01/16 07:55:18;;;;;;;39.20;35.30;;;1.40;93.70;;;;;;5012717;28;20200;-77
2021/01/16 07:57:49;;;;;;;38.53;34.70;;;1.40;92.00;;;;;;5028083;28;20726;-77
2021/01/16 08:00:18;;;;;;;41.10;35.90;;;1.30;91.80;;;;;;5032592;28;20197;-77
2021/01/16 08:03:08;;;;;;;51.42;38.78;;;1.20;91.30;;;;;;5032400;28;20213;-77
2021/01/16 08:05:48;;;;;;;39.30;35.10;;;1.30;93.60;;;;;;5032188;28;20192;-77
2021/01/16 08:08:43;;;;;;;41.22;36.78;;;1.30;95.10;;;;;;5013049;28;20308;-77
2021/01/16 08:11:22;;;;;;;117.65;42.60;;;1.30;94.30;;;;;;4998198;28;20537;-77
2021/01/16 08:13:50;;;;;;;37.00;33.03;;;1.40;93.80;;;;;;5015207;28;20200;-77
2021/01/16 08:16:18;;;;;;;38.40;34.30;;;1.40;94.30;;;;;;5033305;28;20274;-77
2021/01/16 08:18:47;;;;;;;38.58;34.75;;;1.50;92.10;;;;;;5036277;28;20229;-77
2021/01/16 08:21:15;;;;;;;38.35;34.38;;;1.50;90.30;;;;;;5022112;28;20598;-77
2021/01/16 08:23:49;;;;;;;39.40;35.60;;;1.40;89.20;;;;;;5021750;28;20200;-77
2021/01/16 08:26:19;;;;;;;348.10;76.75;;;1.40;88.30;;;;;;5035049;28;20190;-77
2021/01/16 08:28:45;;;;;;;1999.90;344.33;;;1.50;88.50;;;;;;5035852;28;20255;-77
2021/01/16 08:31:25;;;;;;;39.72;35.75;;;1.50;89.40;;;;;;5036021;28;20212;-77
2021/01/16 08:33:51;;;;;;;40.50;36.30;;;1.70;89.30;;;;;;5030667;28;20204;-77
2021/01/16 08:36:20;;;;;;;638.92;103.90;;;1.70;87.50;;;;;;5015951;28;20264;-77
2021/01/16 08:38:48;;;;;;;67.82;37.67;;;1.70;89.10;;;;;;5016172;28;20218;-77
2021/01/16 08:41:21;;;;;;;919.50;138.40;;;1.60;92.10;;;;;;5016208;28;20292;-77
2021/01/16 08:43:53;;;;;;;51.92;37.38;;;1.70;91.90;;;;;;5020738;28;20678;-77
2021/01/16 08:46:24;;;;;;;41.63;37.38;;;1.60;92.30;;;;;;5035675;28;20553;-77
2021/01/16 08:49:02;;;;;;;40.55;36.28;;;1.50;89.90;;;;;;5035744;28;20251;-77
2021/01/16 08:51:37;;;;;;;38.63;34.63;;;1.50;89.20;;;;;;5016847;28;20206;-77
2021/01/16 08:54:16;;;;;;;39.47;35.30;;;1.60;88.20;;;;;;5031410;28;20204;-77
2021/01/16 08:56:45;;;;;;;38.25;34.53;;;1.50;87.20;;;;;;5033857;28;20213;-77
2021/01/16 08:59:19;;;;;;;37.97;34.38;;;1.70;88.40;;;;;;5027846;28;20283;-77
2021/01/16 09:01:46;;;;;;;38.63;34.90;;;1.80;87.10;;;;;;5024223;28;20684;-77
2021/01/16 09:04:17;;;;;;;879.17;128.88;;;1.90;86.60;;;;;;5035342;28;20217;-77
2021/01/16 09:06:45;;;;;;;155.48;44.47;;;1.90;88.30;;;;;;5026446;28;20218;-77
2021/01/16 09:09:14;;;;;;;61.05;37.70;;;1.90;87.80;;;;;;5015738;28;20203;-77
2021/01/16 09:11:41;;;;;;;41.80;35.03;;;1.80;87.60;;;;;;5015701;28;20197;-77
2021/01/16 09:14:07;;;;;;;42.53;38.55;;;1.80;87.60;;;;;;5015737;28;20194;-77
2021/01/16 09:16:35;;;;;;;40.10;36.22;;;1.90;87.50;;;;;;5015627;28;20217;-77
2021/01/16 09:19:03;;;;;;;38.05;34.20;;;1.90;87.60;;;;;;5015536;28;20221;-77
2021/01/16 09:21:29;;;;;;;40.25;36.22;;;1.90;90.30;;;;;;5021587;28;20193;-77
2021/01/16 09:23:57;;;;;;;36.50;33.15;;;1.80;86.50;;;;;;5033758;28;20194;-78
2021/01/16 09:26:27;;;;;;;36.95;33.47;;;1.90;86.20;;;;;;5024709;28;20220;-77
2021/01/16 09:28:55;;;;;;;37.95;34.05;;;2.00;84.50;;;;;;5033746;28;20600;-77
2021/01/16 09:31:27;;;;;;;38.05;34.28;;;2.00;83.20;;;;;;5035039;28;20197;-77
2021/01/16 09:33:56;;;;;;;37.90;34.40;;;2.10;86.40;;;;;;5035028;28;20320;-77
2021/01/16 09:36:40;;;;;;;38.70;34.95;;;2.20;82.60;;;;;;5025485;28;20222;-77
2021/01/16 09:39:18;;;;;;;49.63;37.58;;;2.20;81.30;;;;;;5015159;28;20235;-78
2021/01/16 09:41:45;;;;;;;35.30;32.15;;;2.10;83.70;;;;;;5015426;28;20205;-77
2021/01/16 09:44:11;;;;;;;35.10;32.00;;;2.20;83.90;;;;;;5015101;28;20555;-77
2021/01/16 09:46:39;;;;;;;38.15;34.55;;;2.20;80.30;;;;;;5014948;28;20218;-77
2021/01/16 09:49:07;;;;;;;40.25;36.70;;;2.20;79.40;;;;;;5029117;28;20199;-77
2021/01/16 09:51:35;;;;;;;35.90;32.45;;;2.10;79.90;;;;;;5034569;28;20229;-77
2021/01/16 09:54:15;;;;;;;34.03;30.92;;;2.00;79.30;;;;;;5034505;28;20212;-77
2021/01/16 09:56:43;;;;;;;35.17;32.08;;;1.90;80.50;;;;;;5031863;28;20346;-77
2021/01/16 09:59:21;;;;;;;36.28;33.03;;;1.90;79.40;;;;;;5014233;28;20705;-77
2021/01/16 10:02:07;;;;;;;36.95;33.28;;;1.90;79.60;;;;;;5014536;28;20205;-77
2021/01/16 10:04:42;;;;;;;36.30;33.30;;;2.10;79.90;;;;;;5020192;28;20193;-77
2021/01/16 10:07:10;;;;;;;32.47;29.73;;;2.20;79.70;;;;;;5034164;28;20220;-77
2021/01/16 10:09:44;;;;;;;33.40;30.52;;;2.20;77.40;;;;;;5034333;28;20201;-77
2021/01/16 10:12:40;;;;;;;32.83;30.23;;;2.10;76.30;;;;;;5031993;28;20197;-77
2021/01/16 10:15:09;;;;;;;35.30;31.77;;;2.10;77.50;;;;;;4995109;28;20202;-77
2021/01/16 10:17:36;;;;;;;32.67;30.17;;;2.20;80.20;;;;;;4994410;28;20574;-77
2021/01/16 10:20:05;;;;;;;30.40;27.90;;;2.30;77.50;;;;;;5008107;28;20639;-77
2021/01/16 10:22:33;;;;;;;30.35;27.88;;;2.40;82.80;;;;;;5034015;28;20221;-77
2021/01/16 10:25:01;;;;;;;32.15;29.17;;;2.60;86.90;;;;;;5034034;28;20203;-77
2021/01/16 10:27:46;;;;;;;29.90;27.42;;;2.70;87.00;;;;;;5030737;28;20209;-77
2021/01/16 10:30:18;;;;;;;31.05;28.50;;;2.80;84.80;;;;;;5013629;28;20228;-78
2021/01/16 10:32:46;;;;;;;32.95;30.38;;;3.10;79.60;;;;;;5014540;28;20733;-77
2021/01/16 10:35:24;;;;;;;29.83;27.42;;;3.30;74.70;;;;;;5014979;28;20577;-77
2021/01/16 10:37:52;;;;;;;31.92;29.33;;;3.30;70.60;;;;;;5021996;28;20274;-77
2021/01/16 10:40:20;;;;;;;31.58;28.88;;;3.10;71.20;;;;;;5033384;28;20250;-77
2021/01/16 10:42:48;;;;;;;31.17;28.83;;;3.10;71.30;;;;;;5034102;28;20233;-78
2021/01/16 10:45:17;;;;;;;32.58;30.17;;;3.20;71.20;;;;;;5019502;28;20292;-78
2021/01/16 10:47:44;;;;;;;32.95;30.23;;;3.20;70.90;;;;;;5013760;28;20221;-78
2021/01/16 10:50:16;;;;;;;30.48;28.42;;;3.10;73.40;;;;;;5013889;28;20604;-78
2021/01/16 10:52:43;;;;;;;31.50;29.17;;;3.10;69.90;;;;;;5013949;28;20201;-78
2021/01/16 10:55:12;;;;;;;32.72;30.23;;;3.10;72.50;;;;;;5026954;28;20287;-78
2021/01/16 10:57:46;;;;;;;30.20;27.92;;;3.30;73.00;;;;;;5033130;28;20572;-78
2021/01/16 11:00:16;;;;;;;32.15;29.17;;;3.40;75.30;;;;;;5033603;28;20209;-78
2021/01/16 11:02:43;;;;;;;31.38;28.98;;;3.50;75.80;;;;;;5033354;28;20305;-78
2021/01/16 11:05:25;;;;;;;30.63;28.23;;;3.60;71.50;;;;;;5020100;28;20497;-78
2021/01/16 11:07:59;;;;;;;30.30;28.00;;;3.60;67.90;;;;;;5023327;28;20753;-78
2021/01/16 11:10:34;;;;;;;30.70;28.05;;;3.40;67.60;;;;;;5033158;28;20243;-78
2021/01/16 11:13:21;;;;;;;30.27;27.98;;;3.20;68.80;;;;;;5033314;28;20255;-78
2021/01/16 11:15:51;;;;;;;28.95;26.85;;;3.10;70.50;;;;;;5033297;28;20198;-78
2021/01/16 11:18:29;;;;;;;28.85;26.90;;;3.20;67.50;;;;;;5019870;28;20224;-78
2021/01/16 11:21:00;;;;;;;28.92;26.85;;;3.30;66.60;;;;;;5013266;28;20198;-78
2021/01/16 11:23:57;;;;;;;29.50;27.42;;;3.10;66.30;;;;;;5013322;28;20624;-78
2021/01/16 11:26:25;;;;;;;28.65;26.63;;;3.10;67.50;;;;;;5021064;28;20683;-78
2021/01/16 11:28:54;;;;;;;29.40;27.30;;;3.20;67.80;;;;;;5013211;28;20198;-78
2021/01/16 11:31:29;;;;;;;28.10;25.90;;;3.30;68.50;;;;;;5013152;28;20201;-78
2021/01/16 11:34:21;;;;;;;27.65;25.63;;;3.20;66.70;;;;;;5032488;28;20189;-78
2021/01/16 11:37:00;;;;;;;30.48;28.17;;;3.40;65.80;;;;;;5039558;28;20260;-78
2021/01/16 11:39:42;;;;;;;27.42;25.63;;;3.40;66.10;;;;;;5032975;28;20227;-78
2021/01/16 11:42:09;;;;;;;26.65;24.85;;;3.50;70.80;;;;;;5016453;28;20194;-77
2021/01/16 11:44:56;;;;;;;28.10;26.05;;;3.70;65.50;;;;;;5024330;28;20197;-78
2021/01/16 11:47:23;;;;;;;27.00;25.20;;;3.80;68.90;;;;;;5032974;28;20223;-78
2021/01/16 11:49:50;;;;;;;26.38;24.65;;;3.90;65.30;;;;;;5033039;28;20251;-78
2021/01/16 11:52:17;;;;;;;26.73;24.85;;;3.80;63.10;;;;;;5015967;28;20198;-77
2021/01/16 11:54:43;;;;;;;27.13;25.38;;;3.80;62.10;;;;;;5013606;28;20206;-78
2021/01/16 11:57:11;;;;;;;25.88;24.23;;;3.60;62.20;;;;;;5013301;28;20225;-77
2021/01/16 11:59:40;;;;;;;27.13;25.42;;;3.50;70.00;;;;;;5012871;28;20218;-77
2021/01/16 12:02:11;;;;;;;27.90;26.00;;;3.50;64.00;;;;;;5031036;28;20197;-78
2021/01/16 12:04:42;;;;;;;32.20;29.80;;;3.40;66.60;;;;;;5032903;28;20247;-77
2021/01/16 12:07:08;;;;;;;31.38;29.08;;;3.40;65.80;;;;;;5037927;28;20278;-77
2021/01/16 12:09:37;;;;;;;30.27;28.17;;;3.30;66.60;;;;;;5032539;28;20332;-77
2021/01/16 12:12:07;;;;;;;27.05;25.35;;;3.30;65.90;;;;;;5031009;28;20651;-78
2021/01/16 12:14:35;;;;;;;30.95;28.73;;;3.40;65.00;;;;;;5032839;28;20201;-77
2021/01/16 12:17:06;;;;;;;31.17;28.83;;;3.40;63.70;;;;;;5025993;28;20213;-78
2021/01/16 12:19:34;;;;;;;31.50;29.30;;;3.20;64.20;;;;;;5023853;28;20221;-78
2021/01/16 12:22:03;;;;;;;27.35;25.35;;;2.90;65.50;;;;;;5033767;28;20204;-78
2021/01/16 12:24:30;;;;;;;29.65;27.60;;;2.80;64.10;;;;;;5032659;28;20227;-78
2021/01/16 12:27:00;;;;;;;30.33;28.20;;;2.60;64.80;;;;;;5023420;28;20225;-78
2021/01/16 12:29:39;;;;;;;36.15;33.33;;;2.60;66.70;;;;;;5012855;28;20198;-77
2021/01/16 12:32:08;;;;;;;36.75;33.60;;;2.60;70.90;;;;;;5012977;28;20206;-78
2021/01/16 12:34:45;;;;;;;37.20;34.15;;;2.90;71.50;;;;;;5015422;28;20190;-77
2021/01/16 12:37:11;;;;;;;37.03;33.75;;;2.80;71.10;;;;;;5032214;28;20228;-77
2021/01/16 12:39:38;;;;;;;38.22;35.13;;;2.60;72.70;;;;;;5033380;28;20217;-78
2021/01/16 12:42:06;;;;;;;38.92;35.65;;;2.40;73.30;;;;;;5036944;28;20203;-78
2021/01/16 12:44:32;;;;;;;37.03;33.83;;;2.20;75.00;;;;;;5036000;28;20198;-77
2021/01/16 12:46:59;;;;;;;38.70;35.35;;;2.00;74.20;;;;;;5021298;28;20237;-78
2021/01/16 12:49:28;;;;;;;38.67;35.38;;;2.00;76.60;;;;;;5023130;28;20670;-78
2021/01/16 12:51:55;;;;;;;39.88;36.25;;;2.10;76.30;;;;;;5040561;28;20208;-78